createdAt,value
2022-11-16T00:01:47.605Z,153
2022-11-16T00:04:18.791Z,144
2022-11-16T00:06:49.626Z,142
2022-11-16T00:09:20.487Z,141
2022-11-16T00:11:53.638Z,138
2022-11-16T00:14:23.909Z,140
2022-11-16T00:16:54.739Z,145
2022-11-16T00:19:28.867Z,142
2022-11-16T00:21:59.259Z,127
2022-11-16T00:24:29.487Z,133
2022-11-16T00:27:09.566Z,125
2022-11-16T00:29:39.778Z,124
2022-11-16T00:32:09.921Z,122
2022-11-16T00:34:40.417Z,128
2022-11-16T00:37:10.896Z,119
2022-11-16T00:39:39.632Z,113
2022-11-16T00:42:12.239Z,115
2022-11-16T00:44:43.571Z,114
2022-11-16T00:47:14.159Z,109
2022-11-16T00:49:45.220Z,113
2022-11-16T00:52:16.372Z,112
2022-11-16T00:54:47.459Z,120
2022-11-16T00:57:19.138Z,110
2022-11-16T00:59:49.589Z,117
2022-11-16T01:02:19.800Z,113
2022-11-16T01:04:50.500Z,114
2022-11-16T01:07:21.342Z,117
2022-11-16T01:09:54.576Z,114
2022-11-16T01:12:23.386Z,113
2022-11-16T01:14:53.303Z,114
2022-11-16T01:17:24.062Z,122
2022-11-16T01:19:58.048Z,125
2022-11-16T01:22:28.674Z,126
2022-11-16T01:24:59.597Z,118
2022-11-16T01:27:30.098Z,127
2022-11-16T01:30:00.940Z,125
2022-11-16T01:32:31.179Z,124
2022-11-16T01:35:02.108Z,126
2022-11-16T01:37:33.112Z,115
2022-11-16T01:40:04.071Z,121
2022-11-16T01:42:34.287Z,116
2022-11-16T01:45:05.301Z,118
2022-11-16T01:47:38.292Z,118
2022-11-16T01:50:09.545Z,105
2022-11-16T01:52:40.637Z,113
2022-11-16T01:55:11.692Z,113
2022-11-16T01:57:41.953Z,117
2022-11-16T02:00:14.727Z,101
2022-11-16T02:02:48.444Z,108
2022-11-16T02:05:19.054Z,104
2022-11-16T02:07:49.568Z,100
2022-11-16T02:10:21.762Z,100
2022-11-16T02:12:52.712Z,111
2022-11-16T02:15:22.928Z,110
2022-11-16T02:17:56.387Z,111
2022-11-16T02:20:27.824Z,104
2022-11-16T02:22:58.819Z,116
2022-11-16T02:25:29.761Z,112
2022-11-16T02:27:59.978Z,112
2022-11-16T02:30:32.782Z,113
2022-11-16T02:33:01.978Z,102
2022-11-16T02:35:32.426Z,108
2022-11-16T02:38:04.774Z,107
2022-11-16T02:40:36.002Z,104
2022-11-16T02:43:07.100Z,96
2022-11-16T02:45:38.642Z,107
2022-11-16T02:48:09.409Z,109
2022-11-16T02:50:41.377Z,101
2022-11-16T02:53:12.169Z,112
2022-11-16T02:55:42.864Z,112
2022-11-16T02:58:13.043Z,104
2022-11-16T03:00:44.284Z,106
2022-11-16T03:03:16.213Z,103
2022-11-16T03:05:47.638Z,94
2022-11-16T03:08:19.918Z,101
2022-11-16T03:10:51.787Z,101
2022-11-16T03:13:22.899Z,99
2022-11-16T03:15:55.111Z,106
2022-11-16T03:18:29.003Z,102
2022-11-16T03:20:59.631Z,96
2022-11-16T03:23:30.283Z,102
2022-11-16T03:26:00.675Z,94
2022-11-16T03:28:30.938Z,103
2022-11-16T03:31:00.948Z,97
2022-11-16T03:33:31.174Z,96
2022-11-16T03:36:01.278Z,107
2022-11-16T03:38:31.984Z,99
2022-11-16T03:41:02.240Z,103
2022-11-16T03:43:33.101Z,104
2022-11-16T03:46:03.531Z,105
2022-11-16T03:48:33.529Z,111
2022-11-16T03:51:04.546Z,109
2022-11-16T03:53:36.638Z,102
2022-11-16T03:56:08.904Z,100
2022-11-16T03:58:39.097Z,110
2022-11-16T04:01:10.043Z,98
2022-11-16T04:03:42.422Z,112
2022-11-16T04:06:13.023Z,112
2022-11-16T04:08:41.347Z,121
2022-11-16T04:11:11.737Z,106
2022-11-16T04:13:41.181Z,101
2022-11-16T04:16:13.754Z,106
2022-11-16T04:18:44.473Z,94
2022-11-16T04:21:15.040Z,100
2022-11-16T04:23:45.834Z,96
2022-11-16T04:26:16.231Z,96
2022-11-16T04:28:47.364Z,104
2022-11-16T04:31:21.044Z,100
2022-11-16T04:33:51.868Z,123
2022-11-16T04:36:22.248Z,134
2022-11-16T04:38:53.298Z,125
2022-11-16T04:41:23.908Z,110
2022-11-16T04:43:55.212Z,104
2022-11-16T04:46:27.220Z,98
2022-11-16T04:48:58.497Z,102
2022-11-16T04:51:28.785Z,104
2022-11-16T04:53:59.355Z,101
2022-11-16T04:56:29.950Z,92
2022-11-16T04:59:00.511Z,100
2022-11-16T05:01:31.296Z,92
2022-11-16T05:04:02.232Z,80
2022-11-16T05:06:32.567Z,83
2022-11-16T05:09:03.064Z,90
2022-11-16T05:11:33.894Z,92
2022-11-16T05:14:04.983Z,91
2022-11-16T05:16:35.441Z,83
2022-11-16T05:19:06.584Z,86
2022-11-16T05:21:37.164Z,88
2022-11-16T05:24:08.459Z,90
2022-11-16T05:26:39.192Z,87
2022-11-16T05:29:12.117Z,89
2022-11-16T05:31:42.565Z,99
2022-11-16T05:34:15.488Z,104
2022-11-16T05:36:48.641Z,95
2022-11-16T05:39:19.073Z,95
2022-11-16T05:41:49.418Z,92
2022-11-16T05:44:22.544Z,111
2022-11-16T05:46:53.364Z,97
2022-11-16T05:49:24.163Z,121
2022-11-16T05:51:55.529Z,111
2022-11-16T05:54:27.386Z,118
2022-11-16T05:56:58.839Z,106
2022-11-16T05:59:28.503Z,100
2022-11-16T06:01:59.240Z,104
2022-11-16T06:04:29.465Z,88
2022-11-16T06:07:00.145Z,88
2022-11-16T06:09:32.274Z,79
2022-11-16T06:12:00.944Z,88
2022-11-16T06:14:31.407Z,86
2022-11-16T06:17:04.242Z,85
2022-11-16T06:19:37.577Z,83
2022-11-16T06:22:09.509Z,80
2022-11-16T06:24:40.973Z,80
2022-11-16T06:27:12.086Z,72
2022-11-16T06:29:42.484Z,76
2022-11-16T06:32:16.485Z,76
2022-11-16T06:34:49.727Z,77
2022-11-16T06:37:21.207Z,85
2022-11-16T06:39:54.713Z,82
2022-11-16T06:42:25.206Z,89
2022-11-16T06:44:56.998Z,76
2022-11-16T06:47:29.473Z,71
2022-11-16T06:50:04.955Z,64
2022-11-16T06:52:36.746Z,61
2022-11-16T06:55:07.182Z,60
2022-11-16T06:57:38.878Z,56
2022-11-16T07:00:09.377Z,67
2022-11-16T07:02:41.309Z,56
2022-11-16T07:05:12.027Z,59
2022-11-16T07:07:42.364Z,56
2022-11-16T07:10:14.712Z,56
2022-11-16T07:12:45.309Z,56
2022-11-16T07:15:15.375Z,52
2022-11-16T07:17:47.835Z,53
2022-11-16T07:20:18.264Z,56
2022-11-16T07:22:48.346Z,56
2022-11-16T07:25:18.176Z,56
2022-11-16T07:27:48.420Z,56
2022-11-16T07:30:19.382Z,60
2022-11-16T07:32:51.419Z,56
2022-11-16T07:35:21.282Z,56
2022-11-16T07:37:52.823Z,54
2022-11-16T07:40:24.554Z,55
2022-11-16T07:42:55.902Z,60
2022-11-16T07:45:29.848Z,57
2022-11-16T07:48:02.139Z,52
2022-11-16T07:50:34.952Z,55
2022-11-16T07:53:08.762Z,60
2022-11-16T07:55:40.036Z,52
2022-11-16T07:58:10.303Z,56
2022-11-16T08:00:42.702Z,56
2022-11-16T08:03:14.189Z,54
2022-11-16T08:05:47.428Z,59
2022-11-16T08:08:16.775Z,53
2022-11-16T08:10:48.712Z,56
2022-11-16T08:13:19.806Z,52
2022-11-16T08:15:50.420Z,49
2022-11-16T08:18:22.124Z,41
2022-11-16T08:20:53.646Z,36
2022-11-16T08:23:25.631Z,39
2022-11-16T08:25:56.613Z,37
2022-11-16T08:28:28.121Z,40
2022-11-16T08:30:59.414Z,41
2022-11-16T08:33:31.590Z,44
2022-11-16T08:36:00.574Z,45
2022-11-16T08:38:31.215Z,45
2022-11-16T08:41:01.386Z,41
2022-11-16T08:43:30.742Z,67
2022-11-16T08:46:07.263Z,66
2022-11-16T08:48:38.091Z,52
2022-11-16T08:51:19.153Z,48
2022-11-16T08:53:42.060Z,52
2022-11-16T08:56:11.712Z,53
2022-11-16T08:58:44.492Z,56
2022-11-16T09:01:15.648Z,64
2022-11-16T09:03:49.633Z,62
2022-11-16T09:06:22.949Z,60
2022-11-16T09:08:52.806Z,57
2022-11-16T09:11:23.606Z,52
2022-11-16T09:13:55.288Z,52
2022-11-16T09:16:25.794Z,52
2022-11-16T09:18:59.392Z,51
2022-11-16T09:21:31.687Z,48
2022-11-16T09:24:05.398Z,40
2022-11-16T09:26:35.209Z,40
2022-11-16T09:29:07.183Z,44
2022-11-16T09:31:36.500Z,43
2022-11-16T09:34:09.710Z,44
2022-11-16T09:36:39.428Z,48
2022-11-16T09:39:29.343Z,60
2022-11-16T09:44:18.882Z,65
2022-11-16T09:46:49.097Z,66
2022-11-16T09:49:19.962Z,52
2022-11-16T09:51:49.818Z,52
2022-11-16T09:54:20.587Z,55
2022-11-16T09:56:51.423Z,51
2022-11-16T09:59:22.672Z,56
2022-11-16T10:01:52.565Z,58
2022-11-16T10:04:23.894Z,56
2022-11-16T10:06:55.345Z,56
2022-11-16T10:09:24.956Z,52
2022-11-16T10:11:56.040Z,50
2022-11-16T10:14:27.204Z,53
2022-11-16T10:16:58.731Z,52
2022-11-16T10:19:30.056Z,47
2022-11-16T10:22:00.924Z,48
2022-11-16T10:24:38.376Z,48
2022-11-16T10:27:08.595Z,48
2022-11-16T10:29:40.038Z,48
2022-11-16T10:32:10.608Z,47
2022-11-16T10:34:41.565Z,42
2022-11-16T10:37:12.012Z,36
2022-11-16T10:39:43.091Z,36
2022-11-16T10:42:14.457Z,35
2022-11-16T10:44:45.075Z,33
2022-11-16T10:47:15.028Z,34
2022-11-16T10:49:45.148Z,32
2022-11-16T10:52:16.017Z,31
2022-11-16T10:54:47.645Z,16
2022-11-16T10:57:18.455Z,20
2022-11-16T10:59:49.466Z,22
2022-11-16T11:02:19.824Z,24
2022-11-16T11:04:49.860Z,27
2022-11-16T11:07:20.823Z,32
2022-11-16T11:09:49.610Z,35
2022-11-16T11:12:20.030Z,20
2022-11-16T11:14:50.431Z,20
2022-11-16T11:17:24.230Z,28
2022-11-16T11:19:54.945Z,26
2022-11-16T11:22:25.904Z,21
2022-11-16T11:24:56.453Z,20
2022-11-16T11:27:27.410Z,19
2022-11-16T11:29:58.930Z,12
2022-11-16T11:32:28.629Z,17
2022-11-16T11:34:59.739Z,20
2022-11-16T11:37:30.772Z,12
2022-11-16T11:40:01.925Z,32
2022-11-16T11:42:33.048Z,29
2022-11-16T11:45:05.094Z,43
2022-11-16T11:48:03.016Z,64
2022-11-16T11:50:08.984Z,59
2022-11-16T11:52:39.309Z,61
2022-11-16T11:55:09.772Z,40
2022-11-16T11:57:41.034Z,31
2022-11-16T12:00:14.257Z,16
2022-11-16T12:02:44.948Z,13
2022-11-16T12:05:15.635Z,13
2022-11-16T12:07:45.791Z,14
2022-11-16T12:10:16.752Z,8
2022-11-16T12:12:48.353Z,12
2022-11-16T12:15:18.929Z,8
2022-11-16T12:17:49.514Z,10
2022-11-16T12:20:20.285Z,8
2022-11-16T12:22:50.827Z,11
2022-11-16T12:25:21.935Z,8
2022-11-16T12:27:55.769Z,9
2022-11-16T12:30:26.349Z,8
2022-11-16T12:32:56.861Z,9
2022-11-16T12:35:28.831Z,12
2022-11-16T12:38:00.001Z,8
2022-11-16T12:40:31.063Z,16
2022-11-16T12:43:01.968Z,30
2022-11-16T12:45:33.477Z,13
2022-11-16T12:48:06.443Z,12
2022-11-16T12:50:37.996Z,18
2022-11-16T12:53:08.497Z,12
2022-11-16T12:55:39.102Z,13
2022-11-16T12:58:10.671Z,8
2022-11-16T13:00:41.496Z,31
2022-11-16T13:03:14.023Z,32
2022-11-16T13:05:46.507Z,27
2022-11-16T13:08:17.156Z,28
2022-11-16T13:10:49.384Z,34
2022-11-16T13:13:35.811Z,33
2022-11-16T13:15:52.348Z,16
2022-11-16T13:18:22.508Z,23
2022-11-16T13:20:53.307Z,12
2022-11-16T13:23:24.244Z,12
2022-11-16T13:25:55.339Z,11
2022-11-16T13:28:29.358Z,8
2022-11-16T13:30:56.634Z,12
2022-11-16T13:33:28.528Z,64
2022-11-16T13:36:02.419Z,48
2022-11-16T13:38:33.370Z,48
2022-11-16T13:41:04.950Z,28
2022-11-16T13:43:35.681Z,16
2022-11-16T13:46:06.364Z,17
2022-11-16T13:48:37.720Z,20
2022-11-16T13:51:08.259Z,23
2022-11-16T13:56:09.947Z,16
2022-11-16T13:58:45.024Z,14
2022-11-16T14:01:16.566Z,15
2022-11-16T14:03:48.008Z,20
2022-11-16T14:06:20.065Z,16
2022-11-16T14:08:51.083Z,20
2022-11-16T14:11:20.988Z,20
2022-11-16T14:13:51.889Z,23
2022-11-16T14:16:27.047Z,18
2022-11-16T14:18:59.727Z,27
2022-11-16T14:21:30.948Z,16
2022-11-16T14:24:02.053Z,12
2022-11-16T14:26:36.047Z,26
2022-11-16T14:29:07.854Z,28
2022-11-16T14:31:39.292Z,32
2022-11-16T14:34:14.213Z,36
2022-11-16T14:36:45.245Z,32
2022-11-16T14:39:16.249Z,33
2022-11-16T14:41:48.607Z,32
2022-11-16T14:44:19.896Z,57
2022-11-16T14:46:50.510Z,28
2022-11-16T14:49:22.846Z,26
2022-11-16T14:51:54.823Z,28
2022-11-16T14:54:25.946Z,28
2022-11-16T14:56:58.599Z,29
2022-11-16T14:59:30.318Z,30
2022-11-16T15:02:01.751Z,33
2022-11-16T15:04:33.078Z,37
2022-11-16T15:07:05.202Z,37
2022-11-16T15:09:37.975Z,32
2022-11-16T15:12:09.696Z,36
2022-11-16T15:14:41.162Z,36
2022-11-16T15:17:13.163Z,37
2022-11-16T15:19:44.472Z,32
2022-11-16T15:22:15.665Z,32
2022-11-16T15:24:47.563Z,34
2022-11-16T15:27:18.984Z,36
2022-11-16T15:29:50.781Z,41
2022-11-16T15:32:24.164Z,40
2022-11-16T15:34:55.446Z,42
2022-11-16T15:37:26.951Z,41
2022-11-16T15:40:00.717Z,44
2022-11-16T15:42:40.181Z,36
2022-11-16T15:45:16.783Z,40
2022-11-16T15:47:47.360Z,45
2022-11-16T15:50:20.020Z,48
2022-11-16T15:52:51.274Z,56
2022-11-16T15:55:22.392Z,61
2022-11-16T15:57:53.226Z,68
2022-11-16T16:00:24.621Z,65
2022-11-16T16:02:56.879Z,55
2022-11-16T16:05:29.455Z,46
2022-11-16T16:08:00.858Z,48
2022-11-16T16:10:32.530Z,49
2022-11-16T16:13:07.322Z,49
2022-11-16T16:15:38.393Z,56
2022-11-16T16:18:12.475Z,54
2022-11-16T16:20:48.692Z,59
2022-11-16T16:23:22.657Z,70
2022-11-16T16:25:54.251Z,52
2022-11-16T16:28:26.294Z,48
2022-11-16T16:30:57.389Z,44
2022-11-16T16:33:29.858Z,44
2022-11-16T16:36:01.572Z,44
2022-11-16T16:38:32.636Z,44
2022-11-16T16:41:06.030Z,42
2022-11-16T16:43:37.697Z,44
2022-11-16T16:46:08.516Z,38
2022-11-16T16:48:44.438Z,38
2022-11-16T16:51:10.892Z,37
2022-11-16T16:53:42.243Z,40
2022-11-16T16:56:15.128Z,39
2022-11-16T16:58:44.581Z,40
2022-11-16T17:01:17.611Z,40
2022-11-16T17:03:48.924Z,36
2022-11-16T17:06:20.449Z,39
2022-11-16T17:08:51.088Z,40
2022-11-16T17:11:23.562Z,42
2022-11-16T17:13:54.844Z,44
2022-11-16T17:16:27.952Z,40
2022-11-16T17:18:57.137Z,44
2022-11-16T17:21:26.993Z,44
2022-11-16T17:24:02.452Z,44
2022-11-16T17:26:35.783Z,40
2022-11-16T17:29:05.428Z,39
2022-11-16T17:31:37.289Z,38
2022-11-16T17:34:13.458Z,38
2022-11-16T17:36:41.187Z,39
2022-11-16T17:39:12.156Z,36
2022-11-16T17:41:43.883Z,36
2022-11-16T17:44:18.662Z,40
2022-11-16T17:46:45.980Z,37
2022-11-16T17:49:19.191Z,39
2022-11-16T17:51:50.651Z,36
2022-11-16T17:54:23.236Z,40
2022-11-16T17:56:54.895Z,36
2022-11-16T17:59:29.684Z,36
2022-11-16T18:02:00.431Z,36
2022-11-16T18:04:31.446Z,36
2022-11-16T18:07:03.036Z,36
2022-11-16T18:09:34.180Z,32
2022-11-16T18:12:05.481Z,36
2022-11-16T18:14:36.990Z,33
2022-11-16T18:17:07.699Z,29
2022-11-16T18:19:40.463Z,28
2022-11-16T18:22:11.552Z,32
2022-11-16T18:24:42.875Z,32
2022-11-16T18:27:13.909Z,33
2022-11-16T18:29:46.482Z,32
2022-11-16T18:32:17.345Z,32
2022-11-16T18:34:49.408Z,35
2022-11-16T18:37:18.625Z,29
2022-11-16T18:39:49.999Z,35
2022-11-16T18:42:24.422Z,31
2022-11-16T18:44:55.423Z,29
2022-11-16T18:47:26.579Z,32
2022-11-16T18:49:59.184Z,32
2022-11-16T18:52:29.851Z,32
2022-11-16T18:55:00.910Z,31
2022-11-16T18:57:32.057Z,32
2022-11-16T19:02:48.393Z,27
2022-11-16T19:05:20.234Z,28
2022-11-16T19:07:53.435Z,32
2022-11-16T19:10:24.904Z,36
2022-11-16T19:13:00.627Z,32
2022-11-16T19:15:33.180Z,32
2022-11-16T19:18:20.821Z,31
2022-11-16T19:20:35.757Z,32
2022-11-16T19:23:06.445Z,36
2022-11-16T19:25:37.735Z,32
2022-11-16T19:28:08.022Z,31
2022-11-16T19:30:39.009Z,30
2022-11-16T19:33:10.051Z,32
2022-11-16T19:35:42.247Z,35
2022-11-16T19:38:14.399Z,32
2022-11-16T19:40:45.613Z,32
2022-11-16T19:43:17.739Z,30
2022-11-16T19:45:50.224Z,24
2022-11-16T19:48:21.420Z,27
2022-11-16T19:50:52.970Z,23
2022-11-16T19:53:24.233Z,31
2022-11-16T19:55:55.629Z,24
2022-11-16T19:58:26.438Z,31
2022-11-16T20:00:58.605Z,24
2022-11-16T20:03:30.124Z,32
2022-11-16T20:06:06.391Z,28
2022-11-16T20:08:39.730Z,31
2022-11-16T20:11:10.980Z,31
2022-11-16T20:13:45.133Z,32
2022-11-16T20:16:14.695Z,32
2022-11-16T20:18:45.373Z,29
2022-11-16T20:21:17.655Z,24
2022-11-16T20:23:50.305Z,29
2022-11-16T20:26:25.915Z,32
2022-11-16T20:28:56.447Z,36
2022-11-16T20:31:29.546Z,34
2022-11-16T20:34:00.843Z,25
2022-11-16T20:36:31.875Z,24
2022-11-16T20:39:02.006Z,28
2022-11-16T20:41:33.219Z,25
2022-11-16T20:44:04.483Z,27
2022-11-16T20:46:36.763Z,24
2022-11-16T20:49:08.870Z,35
2022-11-16T20:51:41.381Z,32
2022-11-16T20:54:13.152Z,34
2022-11-16T20:56:44.109Z,36
2022-11-16T20:59:15.170Z,36
2022-11-16T21:01:46.244Z,32
2022-11-16T21:04:17.318Z,32
2022-11-16T21:06:48.475Z,36
2022-11-16T21:09:21.000Z,36
2022-11-16T21:11:53.041Z,32
2022-11-16T21:14:24.479Z,32
2022-11-16T21:16:56.844Z,32
2022-11-16T21:19:29.159Z,35
2022-11-16T21:22:00.039Z,32
2022-11-16T21:24:30.889Z,34
2022-11-16T21:27:02.247Z,35
2022-11-16T21:29:33.151Z,35
2022-11-16T21:32:04.201Z,35
2022-11-16T21:34:39.895Z,34
2022-11-16T21:37:06.541Z,32
2022-11-16T21:39:36.809Z,33
2022-11-16T21:42:09.886Z,32
2022-11-16T21:44:41.243Z,32
2022-11-16T21:47:14.761Z,36
2022-11-16T21:50:08.551Z,35
2022-11-16T21:52:20.884Z,32
2022-11-16T21:54:51.887Z,36
2022-11-16T21:57:23.656Z,44
2022-11-16T21:59:52.923Z,36
2022-11-16T22:02:26.128Z,40
2022-11-16T22:04:57.260Z,44
2022-11-16T22:07:29.447Z,41
2022-11-16T22:10:02.115Z,40
2022-11-16T22:12:33.936Z,42
2022-11-16T22:15:05.034Z,40
2022-11-16T22:17:36.061Z,46
2022-11-16T22:20:06.793Z,43
2022-11-16T22:22:38.635Z,40
2022-11-16T22:25:08.619Z,44
2022-11-16T22:27:58.622Z,45
2022-11-16T22:30:11.740Z,44
2022-11-16T22:32:43.608Z,48
2022-11-16T22:35:17.810Z,48
2022-11-16T22:37:50.053Z,44
2022-11-16T22:40:21.376Z,48
2022-11-16T22:42:52.256Z,51
2022-11-16T22:45:23.561Z,48
2022-11-16T22:47:55.205Z,48
2022-11-16T22:50:29.242Z,52
2022-11-16T22:53:00.847Z,52
2022-11-16T22:55:31.894Z,48
2022-11-16T22:58:03.243Z,52
2022-11-16T23:00:39.083Z,48
2022-11-16T23:03:04.611Z,56
2022-11-16T23:05:35.883Z,52
2022-11-16T23:08:07.155Z,52
2022-11-16T23:10:38.041Z,53
2022-11-16T23:13:09.105Z,52
2022-11-16T23:15:40.071Z,52
2022-11-16T23:18:10.907Z,48
2022-11-16T23:20:43.966Z,52
2022-11-16T23:23:16.391Z,46
2022-11-16T23:25:47.387Z,48
2022-11-16T23:28:22.282Z,48
2022-11-16T23:30:53.087Z,44
2022-11-16T23:33:23.754Z,48
2022-11-16T23:35:54.504Z,44
2022-11-16T23:38:25.314Z,43
2022-11-16T23:40:57.940Z,48
2022-11-16T23:43:29.095Z,48
2022-11-16T23:46:00.745Z,44
2022-11-16T23:48:33.562Z,47
2022-11-16T23:51:03.890Z,51
2022-11-16T23:53:35.394Z,48
2022-11-16T23:56:06.398Z,44
2022-11-16T23:58:38.714Z,45
